createdAt,value
2019-04-27T00:00:53.520Z,100429.05
2019-04-27T00:06:38.218Z,100424.33
2019-04-27T00:09:50.244Z,100420.43
2019-04-27T00:12:17.671Z,100417.20
2019-04-27T00:15:05.263Z,100419.84
2019-04-27T00:21:01.128Z,100414.60
2019-04-27T00:23:48.786Z,100414.60
2019-04-27T00:26:36.315Z,100402.77
2019-04-27T00:29:44.657Z,100401.97
2019-04-27T00:32:13.287Z,100392.30
2019-04-27T00:34:43.273Z,100384.83
2019-04-27T00:37:30.768Z,100383.12
2019-04-27T00:40:18.299Z,100377.92
2019-04-27T00:45:54.916Z,100379.48
2019-04-27T00:48:43.286Z,100374.78
2019-04-27T00:51:33.264Z,100375.51
2019-04-27T00:57:15.526Z,100372.11
2019-04-27T01:00:04.929Z,100368.87
2019-04-27T01:08:01.105Z,100352.57
2019-04-27T01:10:48.767Z,100354.59
2019-04-27T01:13:17.183Z,100358.46
2019-04-27T01:15:45.603Z,100353.00
2019-04-27T01:18:15.522Z,100349.63
2019-04-27T01:21:03.452Z,100354.59
2019-04-27T01:23:31.864Z,100353.36
2019-04-27T01:26:19.427Z,100348.19
2019-04-27T01:29:06.948Z,100339.75
2019-04-27T01:35:09.727Z,100335.70
2019-04-27T01:37:38.676Z,100326.92
2019-04-27T01:40:49.815Z,100323.62
2019-04-27T01:43:18.725Z,100319.66
2019-04-27T01:45:48.844Z,100316.06
2019-04-27T01:48:38.720Z,100315.91
2019-04-27T01:51:27.098Z,100310.85
2019-04-27T01:53:55.501Z,100317.56
2019-04-27T01:56:23.940Z,100316.02
2019-04-27T01:58:52.385Z,100316.50
2019-04-27T02:02:00.714Z,100316.95
2019-04-27T02:04:49.402Z,100318.73
2019-04-27T02:07:19.194Z,100318.97
2019-04-27T02:13:22.677Z,100322.28
2019-04-27T02:15:51.094Z,100316.48
2019-04-27T02:18:40.053Z,100308.52
2019-04-27T02:21:09.145Z,100322.24
2019-04-27T02:23:59.674Z,100313.52
2019-04-27T02:26:29.918Z,100311.30
2019-04-27T02:29:18.890Z,100321.42
2019-04-27T02:32:06.639Z,100322.94
2019-04-27T02:40:59.578Z,100316.71
2019-04-27T02:43:49.759Z,100323.17
2019-04-27T02:46:39.500Z,100323.30
2019-04-27T02:49:27.044Z,100317.36
2019-04-27T02:54:34.187Z,100328.68
2019-04-27T02:57:21.880Z,100319.87
2019-04-27T03:00:10.520Z,100318.11
2019-04-27T03:05:54.953Z,100327.41
2019-04-27T03:08:23.363Z,100327.17
2019-04-27T03:11:11.034Z,100317.95
2019-04-27T03:13:59.886Z,100326.08
2019-04-27T03:16:49.627Z,100319.87
2019-04-27T03:22:49.451Z,100309.79
2019-04-27T03:28:46.206Z,100306.13
2019-04-27T03:31:34.030Z,100297.61
2019-04-27T03:34:22.546Z,100297.61
2019-04-27T03:39:46.024Z,100298.24
2019-04-27T03:45:52.227Z,100293.02
2019-04-27T03:48:40.677Z,100281.89
2019-04-27T03:51:49.811Z,100294.81
2019-04-27T03:54:55.858Z,100291.02
2019-04-27T04:01:00.034Z,100280.34
2019-04-27T04:03:29.735Z,100282.67
2019-04-27T04:06:00.292Z,100275.84
2019-04-27T04:08:30.779Z,100280.11
2019-04-27T04:11:19.834Z,100271.36
2019-04-27T04:14:09.958Z,100267.58
2019-04-27T04:17:01.726Z,100263.47
2019-04-27T04:22:35.389Z,100270.22
2019-04-27T04:25:43.719Z,100253.31
2019-04-27T04:28:12.134Z,100257.84
2019-04-27T04:30:40.558Z,100260.23
2019-04-27T04:33:30.223Z,100256.90
2019-04-27T04:39:04.963Z,100254.11
2019-04-27T04:42:13.284Z,100251.78
2019-04-27T04:48:09.898Z,100260.59
2019-04-27T04:51:20.135Z,100265.38
2019-04-27T04:53:51.882Z,100261.63
2019-04-27T04:56:19.494Z,100270.79
2019-04-27T04:59:07.171Z,100273.52
2019-04-27T05:02:15.502Z,100271.54
2019-04-27T05:05:03.148Z,100262.45
2019-04-27T05:07:50.806Z,100266.86
2019-04-27T05:10:39.455Z,100274.68
2019-04-27T05:13:09.315Z,100272.75
2019-04-27T05:18:26.281Z,100291.12
2019-04-27T05:21:33.062Z,100286.61
2019-04-27T05:24:41.377Z,100292.86
2019-04-27T05:27:29.086Z,100292.13
2019-04-27T05:30:39.043Z,100295.25
2019-04-27T05:33:28.520Z,100295.95
2019-04-27T05:36:16.052Z,100301.66
2019-04-27T05:38:45.886Z,100294.65
2019-04-27T05:41:14.588Z,100304.35
2019-04-27T05:44:03.281Z,100296.31
2019-04-27T05:46:51.354Z,100298.24
2019-04-27T05:49:41.201Z,100299.84
2019-04-27T05:55:39.305Z,100303.64
2019-04-27T05:58:09.313Z,100302.67
2019-04-27T06:00:39.388Z,100306.03
2019-04-27T06:03:29.460Z,100300.80
2019-04-27T06:05:59.358Z,100301.21
2019-04-27T06:08:47.048Z,100303.30
2019-04-27T06:11:34.941Z,100305.38
2019-04-27T06:14:03.360Z,100304.25
2019-04-27T06:19:19.481Z,100307.55
2019-04-27T06:21:50.014Z,100308.41
2019-04-27T06:24:19.492Z,100306.53
2019-04-27T06:26:49.652Z,100313.39
2019-04-27T06:29:19.521Z,100307.78
2019-04-27T06:34:35.650Z,100315.75
2019-04-27T06:40:52.038Z,100318.20
2019-04-27T06:43:40.567Z,100314.33
2019-04-27T06:46:09.715Z,100317.64
2019-04-27T06:48:39.465Z,100312.23
2019-04-27T06:51:09.686Z,100309.19
2019-04-27T06:53:59.330Z,100308.33
2019-04-27T06:56:48.460Z,100304.93
2019-04-27T06:59:18.584Z,100313.54
2019-04-27T07:02:06.434Z,100315.92
2019-04-27T07:04:34.850Z,100319.22
2019-04-27T07:07:03.255Z,100315.13
2019-04-27T07:09:50.922Z,100300.80
2019-04-27T07:12:40.989Z,100299.16
2019-04-27T07:15:48.624Z,100300.70
2019-04-27T07:18:56.902Z,100306.48
2019-04-27T07:21:25.317Z,100299.62
2019-04-27T07:24:13.070Z,100303.26
2019-04-27T07:26:41.481Z,100296.17
2019-04-27T07:29:09.937Z,100302.53
2019-04-27T07:31:40.068Z,100301.03
2019-04-27T07:34:09.317Z,100290.05
2019-04-27T07:36:59.608Z,100290.05
2019-04-27T07:39:29.335Z,100284.33
2019-04-27T07:41:58.536Z,100278.59
2019-04-27T07:47:24.620Z,100278.18
2019-04-27T07:50:12.141Z,100273.66
2019-04-27T07:55:47.119Z,100267.37
2019-04-27T07:58:34.763Z,100262.02
2019-04-27T08:01:22.282Z,100270.00
2019-04-27T08:04:09.941Z,100263.69
2019-04-27T08:06:57.452Z,100268.41
2019-04-27T08:09:25.864Z,100265.47
2019-04-27T08:12:13.604Z,100267.66
2019-04-27T08:15:01.359Z,100265.98
2019-04-27T08:17:49.367Z,100260.45
2019-04-27T08:20:36.873Z,100259.62
2019-04-27T08:23:05.267Z,100254.28
2019-04-27T08:25:33.676Z,100264.14
2019-04-27T08:28:40.443Z,100254.55
2019-04-27T08:33:48.658Z,100249.39
2019-04-27T08:36:19.025Z,100247.75
2019-04-27T08:38:48.938Z,100241.07
2019-04-27T08:41:37.141Z,100237.55
2019-04-27T08:44:24.789Z,100236.45
2019-04-27T08:46:53.196Z,100231.86
2019-04-27T08:49:21.600Z,100222.36
2019-04-27T08:52:09.610Z,100212.13
2019-04-27T08:54:57.265Z,100216.96
2019-04-27T08:57:44.779Z,100212.77
2019-04-27T09:00:53.129Z,100209.73
2019-04-27T09:03:40.644Z,100212.22
2019-04-27T09:11:39.253Z,100203.00
2019-04-27T09:14:26.753Z,100197.16
2019-04-27T09:17:14.276Z,100191.19
2019-04-27T09:20:01.815Z,100186.61
2019-04-27T09:22:49.454Z,100187.89
2019-04-27T09:25:19.330Z,100184.64
2019-04-27T09:27:49.247Z,100179.87
2019-04-27T09:30:39.132Z,100170.81
2019-04-27T09:36:34.660Z,100176.60
2019-04-27T09:41:52.187Z,100176.95
2019-04-27T09:44:20.585Z,100173.22
2019-04-27T09:47:08.240Z,100172.53
2019-04-27T09:49:38.475Z,100160.45
2019-04-27T09:52:06.777Z,100156.00
2019-04-27T09:54:55.940Z,100154.82
2019-04-27T09:57:25.959Z,100148.94
2019-04-27T09:59:56.402Z,100152.41
2019-04-27T10:02:24.901Z,100154.58
2019-04-27T10:05:12.554Z,100152.02
2019-04-27T10:07:40.956Z,100155.65
2019-04-27T10:10:49.275Z,100145.62
2019-04-27T10:13:36.794Z,100144.65
2019-04-27T10:19:00.028Z,100142.27
2019-04-27T10:21:47.679Z,100136.22
2019-04-27T10:24:16.094Z,100129.67
2019-04-27T10:27:05.532Z,100130.32
2019-04-27T10:29:35.527Z,100127.68
2019-04-27T10:34:58.427Z,100122.11
2019-04-27T10:37:26.835Z,100115.56
2019-04-27T10:40:16.102Z,100110.36
2019-04-27T10:43:03.744Z,100118.22
2019-04-27T10:45:32.137Z,100110.84
2019-04-27T10:48:19.815Z,100111.86
2019-04-27T10:51:07.462Z,100100.48
2019-04-27T10:53:38.752Z,100092.30
2019-04-27T10:56:05.964Z,100098.84
2019-04-27T10:58:35.638Z,100087.77
2019-04-27T11:04:02.589Z,100078.72
2019-04-27T11:09:50.160Z,100078.00
2019-04-27T11:12:37.681Z,100076.55
2019-04-27T11:15:46.221Z,100073.59
2019-04-27T11:18:16.662Z,100069.17
2019-04-27T11:20:46.882Z,100069.46
2019-04-27T11:23:16.571Z,100058.39
2019-04-27T11:25:46.889Z,100061.52
2019-04-27T11:28:16.629Z,100055.38
2019-04-27T11:31:04.145Z,100047.05
2019-04-27T11:33:51.668Z,100052.50
2019-04-27T11:36:39.194Z,100056.59
2019-04-27T11:39:47.496Z,100060.48
2019-04-27T11:42:35.153Z,100059.12
2019-04-27T11:48:11.643Z,100061.41
2019-04-27T11:51:19.951Z,100068.47
2019-04-27T11:53:48.371Z,100069.67
2019-04-27T11:56:36.271Z,100073.03
2019-04-27T11:59:44.581Z,100077.58
2019-04-27T12:02:32.104Z,100069.53
2019-04-27T12:05:00.500Z,100081.75
2019-04-27T12:07:28.901Z,100123.56
2019-04-27T12:09:57.299Z,100126.72
2019-04-27T12:12:46.326Z,100142.23
2019-04-27T12:15:54.976Z,100136.44
2019-04-27T12:18:42.656Z,100147.82
2019-04-27T12:21:11.029Z,100142.29
2019-04-27T12:26:32.468Z,100173.17
2019-04-27T12:32:26.685Z,100167.69
2019-04-27T12:40:27.665Z,100154.01
2019-04-27T12:42:56.063Z,100161.42
2019-04-27T12:46:05.920Z,100158.60
2019-04-27T12:48:55.337Z,100164.25
2019-04-27T12:51:23.734Z,100151.20
2019-04-27T12:54:11.253Z,100156.39
2019-04-27T12:56:58.764Z,100156.66
2019-04-27T12:59:46.679Z,100153.86
2019-04-27T13:02:15.093Z,100149.97
2019-04-27T13:04:43.517Z,100154.07
2019-04-27T13:07:31.167Z,100146.41
2019-04-27T13:09:59.569Z,100145.72
2019-04-27T13:12:27.980Z,100146.16
2019-04-27T13:15:15.639Z,100144.73
2019-04-27T13:17:44.070Z,100139.61
2019-04-27T13:20:52.389Z,100133.23
2019-04-27T13:23:20.791Z,100137.25
2019-04-27T13:25:49.197Z,100131.38
2019-04-27T13:28:36.722Z,100125.50
2019-04-27T13:31:45.024Z,100129.09
2019-04-27T13:34:32.674Z,100126.94
2019-04-27T13:37:39.469Z,100122.81
2019-04-27T13:40:47.794Z,100118.84
2019-04-27T13:46:10.961Z,100120.59
2019-04-27T13:48:58.512Z,100115.34
2019-04-27T13:51:46.041Z,100116.09
2019-04-27T13:54:33.571Z,100114.22
2019-04-27T13:57:01.967Z,100114.19
2019-04-27T13:59:51.507Z,100117.55
2019-04-27T14:02:21.542Z,100113.98
2019-04-27T14:04:50.029Z,100110.19
2019-04-27T14:07:40.642Z,100112.02
2019-04-27T14:10:09.346Z,100108.19
2019-04-27T14:12:38.594Z,100108.47
2019-04-27T14:15:49.075Z,100106.35
2019-04-27T14:18:18.995Z,100108.61
2019-04-27T14:20:48.694Z,100107.06
2019-04-27T14:25:53.817Z,100105.36
2019-04-27T14:28:22.224Z,100100.40
2019-04-27T14:30:50.626Z,100093.95
2019-04-27T14:33:39.834Z,100087.30
2019-04-27T14:36:29.215Z,100092.21
2019-04-27T14:39:18.508Z,100088.01
2019-04-27T14:42:08.345Z,100083.44
2019-04-27T14:44:56.409Z,100087.09
2019-04-27T14:47:43.950Z,100086.76
2019-04-27T14:50:12.407Z,100086.41
2019-04-27T14:52:59.922Z,100084.91
2019-04-27T14:55:49.044Z,100083.87
2019-04-27T14:58:19.147Z,100081.76
2019-04-27T15:00:49.692Z,100082.21
2019-04-27T15:03:37.120Z,100087.03
2019-04-27T15:06:05.586Z,100091.30
2019-04-27T15:08:34.154Z,100086.91
2019-04-27T15:13:43.134Z,100092.45
2019-04-27T15:21:21.659Z,100105.47
2019-04-27T15:24:13.471Z,100103.95
2019-04-27T15:26:39.449Z,100100.16
2019-04-27T15:34:37.969Z,100107.34
2019-04-27T15:37:28.252Z,100103.28
2019-04-27T15:40:14.738Z,100122.23
2019-04-27T15:43:02.250Z,100126.02
2019-04-27T15:45:30.658Z,100135.21
2019-04-27T15:48:20.284Z,100133.73
2019-04-27T15:50:48.440Z,100134.63
2019-04-27T15:53:38.616Z,100136.66
2019-04-27T15:56:06.225Z,100138.69
2019-04-27T15:58:55.746Z,100145.09
2019-04-27T16:01:24.041Z,100150.61
2019-04-27T16:04:11.565Z,100155.64
2019-04-27T16:07:25.317Z,100165.13
2019-04-27T16:09:49.995Z,100165.20
2019-04-27T16:12:18.399Z,100163.20
2019-04-27T16:15:05.936Z,100168.42
2019-04-27T16:17:34.338Z,100166.48
2019-04-27T16:20:29.178Z,100168.64
2019-04-27T16:25:48.415Z,100171.77
2019-04-27T16:31:16.314Z,100182.61
2019-04-27T16:33:44.713Z,100190.99
2019-04-27T16:36:32.365Z,100183.17
2019-04-27T16:39:20.432Z,100192.63
2019-04-27T16:41:50.319Z,100200.86
2019-04-27T16:44:19.015Z,100196.27
2019-04-27T16:47:08.338Z,100194.83
2019-04-27T16:49:38.146Z,100201.81
2019-04-27T16:52:11.629Z,100202.43
2019-04-27T16:54:37.829Z,100202.39
2019-04-27T16:59:46.164Z,100203.42
2019-04-27T17:02:11.598Z,100207.55
2019-04-27T17:04:39.997Z,100204.96
2019-04-27T17:07:09.085Z,100199.16
2019-04-27T17:09:59.503Z,100202.40
2019-04-27T17:12:48.657Z,100204.16
2019-04-27T17:15:58.936Z,100211.25
2019-04-27T17:21:21.116Z,100206.37
2019-04-27T17:23:48.132Z,100202.31
2019-04-27T17:26:23.311Z,100204.08
2019-04-27T17:29:11.028Z,100204.88
2019-04-27T17:34:19.024Z,100202.09
2019-04-27T17:36:48.485Z,100204.64
2019-04-27T17:39:34.484Z,100207.23
2019-04-27T17:42:22.703Z,100216.77
2019-04-27T17:45:11.475Z,100210.44
2019-04-27T17:47:39.911Z,100211.77
2019-04-27T17:50:09.326Z,100226.03
2019-04-27T17:52:39.822Z,100236.98
2019-04-27T17:55:08.725Z,100249.75
2019-04-27T17:58:00.467Z,100259.02
2019-04-27T18:00:28.082Z,100262.36
2019-04-27T18:02:57.979Z,100279.18
2019-04-27T18:05:28.543Z,100277.98
2019-04-27T18:07:57.996Z,100273.67
2019-04-27T18:10:28.170Z,100278.97
2019-04-27T18:15:30.860Z,100288.69
2019-04-27T18:20:38.017Z,100298.61
2019-04-27T18:23:25.542Z,100299.11
2019-04-27T18:26:32.421Z,100296.22
2019-04-27T18:34:22.319Z,100291.31
2019-04-27T18:37:09.851Z,100293.97
2019-04-27T18:39:58.494Z,100290.73
2019-04-27T18:42:31.095Z,100286.04
2019-04-27T18:45:06.065Z,100285.34
2019-04-27T18:53:24.233Z,100280.87
2019-04-27T18:58:38.293Z,100294.13
2019-04-27T19:01:25.958Z,100301.74
2019-04-27T19:03:54.380Z,100290.77
2019-04-27T19:06:42.052Z,100292.23
2019-04-27T19:09:29.774Z,100296.11
2019-04-27T19:11:58.183Z,100305.00
2019-04-27T19:14:28.210Z,100312.59
2019-04-27T19:16:58.664Z,100308.07
2019-04-27T19:19:45.957Z,100317.22
2019-04-27T19:24:48.837Z,100322.63
2019-04-27T19:27:36.379Z,100321.11
2019-04-27T19:30:44.693Z,100327.58
2019-04-27T19:35:48.148Z,100335.28
2019-04-27T19:38:36.817Z,100327.69
2019-04-27T19:41:05.222Z,100333.95
2019-04-27T19:43:52.888Z,100333.92
2019-04-27T19:49:08.857Z,100339.23
2019-04-27T19:51:39.174Z,100337.72
2019-04-27T19:54:09.036Z,100336.17
2019-04-27T19:56:38.398Z,100339.27
2019-04-27T19:59:28.075Z,100339.05
2019-04-27T20:05:45.182Z,100343.06
2019-04-27T20:08:51.967Z,100342.77
2019-04-27T20:11:20.368Z,100341.62
2019-04-27T20:13:50.618Z,100337.39
2019-04-27T20:16:20.764Z,100339.19
2019-04-27T20:18:49.273Z,100342.90
2019-04-27T20:24:24.460Z,100346.81
2019-04-27T20:26:52.859Z,100346.64
2019-04-27T20:31:55.188Z,100344.41
2019-04-27T20:34:42.845Z,100348.95
2019-04-27T20:37:11.919Z,100347.21
2019-04-27T20:39:42.889Z,100356.02
2019-04-27T20:42:31.498Z,100359.48
2019-04-27T20:45:20.082Z,100353.57
2019-04-27T20:47:48.480Z,100353.98
2019-04-27T20:50:16.892Z,100356.25
2019-04-27T20:58:33.313Z,100371.99
2019-04-27T21:04:10.982Z,100376.74
2019-04-27T21:12:03.244Z,100377.94
2019-04-27T21:14:31.764Z,100377.73
2019-04-27T21:17:19.752Z,100380.38
2019-04-27T21:20:07.318Z,100375.26
2019-04-27T21:22:35.725Z,100378.61
2019-04-27T21:25:23.387Z,100375.61
2019-04-27T21:27:51.786Z,100377.71
2019-04-27T21:30:39.442Z,100377.81
2019-04-27T21:33:27.096Z,100377.94
2019-04-27T21:35:55.502Z,100379.42
2019-04-27T21:38:43.188Z,100376.77
2019-04-27T21:41:31.260Z,100370.48
2019-04-27T21:46:54.226Z,100367.45
2019-04-27T21:52:17.272Z,100381.62
2019-04-27T21:57:24.604Z,100381.58
2019-04-27T21:59:53.013Z,100386.23
2019-04-27T22:05:51.620Z,100393.06
2019-04-27T22:08:21.492Z,100395.95
2019-04-27T22:11:11.734Z,100395.91
2019-04-27T22:16:27.674Z,100395.48
2019-04-27T22:18:56.095Z,100399.96
2019-04-27T22:29:41.336Z,100399.66
2019-04-27T22:32:09.753Z,100417.38
2019-04-27T22:34:38.168Z,100417.82
2019-04-27T22:37:06.637Z,100415.56
2019-04-27T22:39:54.176Z,100427.23
2019-04-27T22:42:41.719Z,100420.42
2019-04-27T22:45:50.998Z,100424.53
2019-04-27T22:51:28.256Z,100424.88
2019-04-27T22:54:15.937Z,100438.95
2019-04-27T23:05:47.359Z,100442.23
2019-04-27T23:08:15.761Z,100443.04
2019-04-27T23:10:44.174Z,100443.09
2019-04-27T23:13:31.837Z,100446.80
2019-04-27T23:18:54.913Z,100453.61
2019-04-27T23:21:42.576Z,100456.31
2019-04-27T23:24:11.001Z,100454.54
2019-04-27T23:26:58.530Z,100446.44
2019-04-27T23:29:26.935Z,100449.23
2019-04-27T23:34:53.675Z,100446.05
2019-04-27T23:37:41.326Z,100446.22
2019-04-27T23:40:51.626Z,100449.94
2019-04-27T23:46:08.857Z,100444.61
2019-04-27T23:48:56.378Z,100446.87
2019-04-27T23:56:37.527Z,100454.42
2019-04-27T23:59:25.451Z,100453.97
